»·PEaware :: N24DF KACV-KMFR

N24DF :: KACV-KMFR

FLIGHT INFORMATION

Flight Status: Arrived
Operator: Privately registered:
United States
More flights under this callsign
Pilot: David F. (17152)
Aircraft: CESSNA 172 SKYHAWK
(C172)
More flights by this aircraft type
Origin: KACV Arcata
United States
Destination: KMFR Rogue Valley Intl-Medford
United States
More flights between these airports :: More routes between these airports
Route: HOCUT5 CEC OED
File this flight plan on PilotEdge
Remarks: DOF / 181014 REG / N24DF PER / A TALT / KRDD RMK / TCAS SIMBRIEF
Altitude:
(Current/Filed)
9,000ft
Speed:
(Current/Filed)
115kts
Departed: 14-Oct-18 02:17 PM
Arrived: 14-Oct-18 03:50 PM
Distance/Time
Traveled:
100nm/1:33
Distance/Time
To Go:
Arrived

Flight Plot

Page will automatically refresh every two minutes.

Flight plan parsing failed; only flown route is shown


Map Options




Map Legend


Flown Route
Filed Route
Departure Airport
Arrival Airport
Navaid (VOR, NDB)
Fix

Horizontal Profiles

Position Reports

Time Latitude Longitude Heading Altitude Ground
Speed
14-Oct-18 13:52 40.971587 -124.106259 332 226ft 0kts
14-Oct-18 13:53 40.971587 -124.106259 332 226ft 0kts
14-Oct-18 13:54 40.971587 -124.106259 332 226ft 0kts
14-Oct-18 13:55 40.971587 -124.106259 332 226ft 0kts
14-Oct-18 13:56 40.971587 -124.106259 332 226ft 0kts
14-Oct-18 13:57 40.971587 -124.106259 332 226ft 0kts
14-Oct-18 13:58 40.971587 -124.106259 332 226ft 0kts
14-Oct-18 13:59 40.971587 -124.106259 332 226ft 0kts
14-Oct-18 14:00 40.971587 -124.106259 332 226ft 0kts
14-Oct-18 14:01 40.971587 -124.106259 332 226ft 0kts
14-Oct-18 14:02 40.971587 -124.106259 332 226ft 0kts
14-Oct-18 14:03 40.971587 -124.106259 332 226ft 0kts
14-Oct-18 14:04 40.971587 -124.106259 332 226ft 0kts
14-Oct-18 14:05 40.971587 -124.106259 332 226ft 0kts
14-Oct-18 14:06 40.971587 -124.106259 332 226ft 0kts
14-Oct-18 14:07 40.971587 -124.106259 332 226ft 0kts
14-Oct-18 14:08 40.971587 -124.106259 332 226ft 0kts
14-Oct-18 14:09 40.971587 -124.106259 332 226ft 0kts
14-Oct-18 14:10 40.971587 -124.106259 332 226ft 0kts
14-Oct-18 14:11 40.971587 -124.106260 332 226ft 0kts
14-Oct-18 14:12 40.971587 -124.106260 332 226ft 0kts
14-Oct-18 14:13 40.973942 -124.108471 330 226ft 12kts
14-Oct-18 14:14 40.976593 -124.108448 1 226ft 9kts
14-Oct-18 14:15 40.980513 -124.105592 30 226ft 16kts
14-Oct-18 14:16 40.982676 -124.104212 322 226ft 0kts
14-Oct-18 14:17 40.982678 -124.104213 323 226ft 0kts
14-Oct-18 14:18 40.982956 -124.104963 244 226ft 5kts
14-Oct-18 14:19 40.971738 -124.116283 258 749ft 73kts
14-Oct-18 14:20 40.981399 -124.142718 322 1448ft 108kts
14-Oct-18 14:21 40.980613 -124.179416 259 1933ft 109kts
14-Oct-18 14:22 40.977464 -124.217840 266 2598ft 101kts
14-Oct-18 14:23 40.996024 -124.235685 354 3392ft 101kts
14-Oct-18 14:24 41.023537 -124.236341 354 4188ft 96kts
14-Oct-18 14:25 41.049669 -124.236633 355 4980ft 92kts
14-Oct-18 14:26 41.074435 -124.236807 355 5770ft 86kts
14-Oct-18 14:27 41.098054 -124.236969 356 6486ft 88kts
14-Oct-18 14:28 41.122856 -124.237122 1 7073ft 95kts
14-Oct-18 14:29 41.150890 -124.237249 3 7677ft 104kts
14-Oct-18 14:30 41.180277 -124.237463 3 8275ft 106kts
14-Oct-18 14:31 41.209433 -124.237672 5 8872ft 103kts
14-Oct-18 14:32 41.241583 -124.237856 4 9000ft 127kts
14-Oct-18 14:33 41.277772 -124.238075 4 8999ft 127kts
14-Oct-18 14:34 41.309934 -124.238248 1 8998ft 110kts
14-Oct-18 14:35 41.340419 -124.238417 1 8997ft 109kts
14-Oct-18 14:36 41.370985 -124.238594 1 8995ft 111kts
14-Oct-18 14:37 41.401786 -124.238768 1 8993ft 111kts
14-Oct-18 14:38 41.432704 -124.238945 1 8991ft 111kts
14-Oct-18 14:39 41.463698 -124.239149 1 8991ft 111kts
14-Oct-18 14:40 41.494677 -124.239371 1 8991ft 111kts
14-Oct-18 14:41 41.525688 -124.239563 1 8990ft 111kts
14-Oct-18 14:42 41.556682 -124.239745 1 8990ft 111kts
14-Oct-18 14:43 41.587614 -124.239921 1 8990ft 111kts
14-Oct-18 14:44 41.618633 -124.240094 1 8990ft 111kts
14-Oct-18 14:45 41.649602 -124.240275 1 8990ft 111kts
14-Oct-18 14:46 41.680498 -124.240478 1 8990ft 111kts
14-Oct-18 14:47 41.711471 -124.240680 1 8990ft 111kts
14-Oct-18 14:48 41.742358 -124.240873 1 8990ft 111kts
14-Oct-18 14:49 41.773342 -124.240933 7 8989ft 111kts
14-Oct-18 14:50 41.794877 -124.211223 57 8995ft 116kts
14-Oct-18 14:51 41.814409 -124.175984 58 8995ft 117kts
14-Oct-18 14:52 41.833597 -124.140574 59 8994ft 118kts
14-Oct-18 14:53 41.852735 -124.104814 51 8992ft 116kts
14-Oct-18 14:54 41.871337 -124.070245 50 8989ft 113kts
14-Oct-18 14:55 41.889724 -124.035975 50 8989ft 112kts
14-Oct-18 14:56 41.907961 -124.001898 50 8989ft 112kts
14-Oct-18 14:57 41.926243 -123.967679 50 8990ft 112kts
14-Oct-18 14:58 41.944829 -123.932949 59 8995ft 116kts
14-Oct-18 14:59 41.963710 -123.897444 59 8998ft 116kts
14-Oct-18 15:00 41.982586 -123.861975 58 9001ft 116kts
14-Oct-18 15:01 42.001198 -123.826970 58 9004ft 115kts
14-Oct-18 15:02 42.019717 -123.792110 58 9007ft 114kts
14-Oct-18 15:03 42.038068 -123.757528 57 9009ft 112kts
14-Oct-18 15:04 42.056671 -123.722427 57 8930ft 113kts
14-Oct-18 15:05 42.074782 -123.688292 56 8933ft 111kts
14-Oct-18 15:06 42.092750 -123.654348 57 8934ft 111kts
14-Oct-18 15:07 42.110661 -123.620412 55 8929ft 112kts
14-Oct-18 15:08 42.128700 -123.586233 55 8932ft 111kts
14-Oct-18 15:09 42.146502 -123.552476 54 8955ft 110kts
14-Oct-18 15:10 42.164195 -123.518881 56 8978ft 109kts
14-Oct-18 15:11 42.181729 -123.485536 55 9000ft 108kts
14-Oct-18 15:12 42.199134 -123.452235 56 9023ft 108kts
14-Oct-18 15:13 42.216435 -123.419218 56 9046ft 107kts
14-Oct-18 15:14 42.233684 -123.386305 57 9068ft 107kts
14-Oct-18 15:15 42.250905 -123.353408 57 9089ft 107kts
14-Oct-18 15:16 42.268057 -123.320587 58 9092ft 108kts
14-Oct-18 15:17 42.285508 -123.287171 57 9013ft 113kts
14-Oct-18 15:18 42.303141 -123.253390 57 9000ft 108kts
14-Oct-18 15:19 42.320541 -123.220004 58 9002ft 108kts
14-Oct-18 15:20 42.344685 -123.198157 13 8999ft 118kts
14-Oct-18 15:21 42.377293 -123.192850 14 9000ft 117kts
14-Oct-18 15:22 42.409742 -123.187593 13 9002ft 117kts
14-Oct-18 15:23 42.442173 -123.182300 13 9001ft 117kts
14-Oct-18 15:24 42.474712 -123.176909 13 9000ft 118kts
14-Oct-18 15:25 42.507164 -123.171532 14 8999ft 117kts
14-Oct-18 15:26 42.539663 -123.166314 14 9000ft 117kts
14-Oct-18 15:27 42.572454 -123.162816 9 9001ft 119kts
14-Oct-18 15:28 42.605662 -123.161784 7 8901ft 125kts
14-Oct-18 15:29 42.641859 -123.161680 6 8166ft 130kts
14-Oct-18 15:30 42.676133 -123.162035 10 7573ft 121kts
14-Oct-18 15:31 42.691452 -123.129731 74 7099ft 100kts
14-Oct-18 15:32 42.700897 -123.094802 74 7099ft 98kts
14-Oct-18 15:33 42.711029 -123.058897 75 7101ft 104kts
14-Oct-18 15:34 42.721627 -123.022080 74 7098ft 104kts
14-Oct-18 15:35 42.709796 -122.999899 181 7101ft 116kts
14-Oct-18 15:36 42.678182 -123.011140 184 7102ft 118kts
14-Oct-18 15:37 42.645590 -123.014960 152 6732ft 121kts
14-Oct-18 15:38 42.616701 -123.000425 151 6137ft 89kts
14-Oct-18 15:39 42.597148 -122.990237 148 5702ft 65kts
14-Oct-18 15:40 42.578102 -122.980043 152 5300ft 74kts
14-Oct-18 15:41 42.559818 -122.970413 153 4894ft 68kts
14-Oct-18 15:42 42.541977 -122.960997 153 4506ft 69kts
14-Oct-18 15:43 42.523996 -122.951519 155 4129ft 69kts
14-Oct-18 15:44 42.503340 -122.940691 156 3687ft 68kts
14-Oct-18 15:45 42.488655 -122.932975 155 3393ft 68kts
14-Oct-18 15:46 42.469760 -122.923047 157 3018ft 73kts
14-Oct-18 15:47 42.451576 -122.913482 155 2645ft 71kts
14-Oct-18 15:48 42.432716 -122.903975 159 2336ft 71kts
14-Oct-18 15:49 42.414213 -122.893430 154 1967ft 75kts
14-Oct-18 15:50 42.397798 -122.885418 157 1610ft 56kts
14-Oct-18 15:51 42.384389 -122.878212 161 1319ft 46kts
14-Oct-18 15:52 42.379044 -122.875404 162 1306ft 11kts
14-Oct-18 15:53 42.376058 -122.875059 224 1308ft 2kts
14-Oct-18 15:54 42.375084 -122.874939 159 1309ft 8kts
14-Oct-18 15:55 42.372422 -122.873515 160 1313ft 12kts
14-Oct-18 15:56 42.370913 -122.874393 293 1314ft 9kts
14-Oct-18 15:57 42.371424 -122.875967 288 1311ft 0kts
14-Oct-18 15:58 42.371424 -122.875967 288 1311ft 0kts

Navigation Log

Ident Type
Flight plan parsing failed, navigation log unavailable